createdAt,value
2018-11-28T00:00:10.729Z,13.47
2018-11-28T00:02:38.817Z,13.33
2018-11-28T00:05:13.333Z,13.63
2018-11-28T00:07:41.565Z,14.67
2018-11-28T00:10:12.137Z,13.20
2018-11-28T00:12:40.087Z,14.07
2018-11-28T00:15:08.903Z,14.37
2018-11-28T00:17:37.094Z,15.03
2018-11-28T00:20:05.693Z,14.10
2018-11-28T00:22:33.621Z,14.50
2018-11-28T00:25:01.578Z,15.07
2018-11-28T00:27:29.429Z,14.87
2018-11-28T00:29:57.267Z,16.00
2018-11-28T00:32:25.189Z,16.00
2018-11-28T00:34:53.067Z,14.77
2018-11-28T00:37:20.945Z,16.83
2018-11-28T00:39:48.879Z,15.17
2018-11-28T00:42:16.795Z,15.83
2018-11-28T00:44:44.658Z,15.20
2018-11-28T00:47:12.624Z,16.70
2018-11-28T00:49:40.538Z,16.23
2018-11-28T00:52:08.507Z,16.13
2018-11-28T00:54:36.350Z,16.97
2018-11-28T00:57:04.281Z,16.53
2018-11-28T00:59:32.201Z,15.60
2018-11-28T01:02:00.065Z,15.83
2018-11-28T01:04:28.082Z,16.37
2018-11-28T01:06:56.214Z,16.30
2018-11-28T01:09:24.068Z,16.33
2018-11-28T01:11:52.018Z,16.13
2018-11-28T01:14:19.911Z,16.23
2018-11-28T01:16:47.767Z,17.37
2018-11-28T01:19:15.653Z,16.83
2018-11-28T01:21:43.598Z,15.60
2018-11-28T01:24:11.465Z,16.67
2018-11-28T01:26:40.317Z,15.53
2018-11-28T01:29:08.598Z,15.80
2018-11-28T01:31:36.442Z,15.37
2018-11-28T01:34:04.307Z,15.30
2018-11-28T01:36:32.499Z,14.77
2018-11-28T01:39:00.349Z,15.50
2018-11-28T01:41:28.281Z,15.70
2018-11-28T01:43:56.150Z,16.57
2018-11-28T01:46:24.095Z,15.20
2018-11-28T01:48:51.956Z,15.60
2018-11-28T01:51:19.834Z,15.50
2018-11-28T01:53:47.813Z,15.17
2018-11-28T01:56:15.680Z,16.17
2018-11-28T01:58:43.545Z,15.00
2018-11-28T02:01:11.441Z,15.30
2018-11-28T02:03:39.379Z,15.27
2018-11-28T02:06:07.269Z,15.50
2018-11-28T02:08:35.142Z,15.67
2018-11-28T02:11:02.988Z,15.90
2018-11-28T02:13:30.865Z,15.37
2018-11-28T02:15:58.740Z,15.40
2018-11-28T02:18:27.177Z,15.37
2018-11-28T02:20:55.133Z,16.20
2018-11-28T02:23:23.187Z,15.70
2018-11-28T02:25:51.041Z,15.37
2018-11-28T02:28:18.972Z,15.70
2018-11-28T02:30:46.927Z,14.73
2018-11-28T02:33:14.811Z,14.97
2018-11-28T02:35:42.680Z,16.40
2018-11-28T02:38:10.568Z,15.43
2018-11-28T02:40:38.405Z,16.03
2018-11-28T02:43:06.748Z,14.57
2018-11-28T02:45:34.606Z,15.10
2018-11-28T02:48:02.477Z,14.87
2018-11-28T02:50:30.402Z,14.67
2018-11-28T02:52:58.258Z,13.97
2018-11-28T02:55:26.106Z,15.40
2018-11-28T02:57:53.970Z,14.20
2018-11-28T03:00:23.254Z,15.20
2018-11-28T03:02:51.186Z,16.03
2018-11-28T03:05:19.110Z,14.93
2018-11-28T03:07:46.966Z,14.87
2018-11-28T03:10:17.304Z,15.97
2018-11-28T03:12:45.153Z,14.87
2018-11-28T03:15:13.890Z,15.93
2018-11-28T03:17:41.774Z,14.70
2018-11-28T03:20:10.854Z,15.57
2018-11-28T03:22:39.346Z,15.57
2018-11-28T03:25:08.234Z,16.07
2018-11-28T03:27:36.134Z,14.67
2018-11-28T03:30:05.126Z,16.03
2018-11-28T03:32:33.008Z,15.07
2018-11-28T03:35:00.873Z,15.73
2018-11-28T03:37:28.729Z,15.10
2018-11-28T03:39:56.613Z,14.13
2018-11-28T03:42:24.654Z,14.77
2018-11-28T03:44:52.514Z,14.37
2018-11-28T03:47:20.382Z,15.17
2018-11-28T03:49:48.266Z,15.20
2018-11-28T03:52:16.113Z,16.17
2018-11-28T03:54:44.023Z,15.77
2018-11-28T03:57:11.872Z,14.30
2018-11-28T03:59:39.724Z,14.70
2018-11-28T04:02:07.592Z,14.23
2018-11-28T04:04:35.439Z,15.30
2018-11-28T04:07:03.300Z,15.00
2018-11-28T04:09:31.163Z,13.90
2018-11-28T04:11:59.034Z,15.13
2018-11-28T04:14:26.905Z,14.10
2018-11-28T04:16:55.114Z,15.13
2018-11-28T04:19:23.018Z,14.57
2018-11-28T04:21:50.872Z,15.27
2018-11-28T04:24:18.758Z,14.63
2018-11-28T04:26:46.985Z,14.50
2018-11-28T04:29:14.851Z,14.53
2018-11-28T04:31:42.722Z,14.77
2018-11-28T04:34:10.579Z,13.77
2018-11-28T04:36:38.433Z,15.27
2018-11-28T04:39:07.458Z,13.07
2018-11-28T04:41:35.352Z,13.83
2018-11-28T04:44:03.232Z,13.13
2018-11-28T04:46:31.071Z,13.53
2018-11-28T04:48:58.937Z,13.10
2018-11-28T04:51:26.812Z,13.63
2018-11-28T04:53:54.674Z,12.20
2018-11-28T04:56:22.595Z,13.30
2018-11-28T04:58:50.485Z,12.53
2018-11-28T05:01:18.389Z,12.47
2018-11-28T05:03:46.289Z,13.33
2018-11-28T05:06:18.478Z,12.00
2018-11-28T05:08:46.890Z,13.30
2018-11-28T05:11:14.805Z,13.10
2018-11-28T05:13:42.691Z,13.60
2018-11-28T05:16:10.579Z,13.30
2018-11-28T05:18:38.434Z,12.70
2018-11-28T05:21:06.323Z,13.00
2018-11-28T05:23:34.176Z,13.00
2018-11-28T05:26:02.022Z,14.57
2018-11-28T05:28:29.910Z,14.17
2018-11-28T05:30:57.836Z,14.43
2018-11-28T05:33:25.681Z,14.80
2018-11-28T05:35:53.573Z,15.40
2018-11-28T05:38:21.431Z,14.43
2018-11-28T05:40:49.294Z,16.07
2018-11-28T05:43:17.734Z,15.90
2018-11-28T05:45:45.578Z,14.77
2018-11-28T05:48:13.449Z,14.60
2018-11-28T05:50:41.307Z,15.97
2018-11-28T05:53:09.171Z,16.13
2018-11-28T05:55:37.302Z,14.30
2018-11-28T05:58:05.594Z,14.73
2018-11-28T06:00:40.557Z,14.13
2018-11-28T06:03:12.021Z,13.77
2018-11-28T06:05:40.327Z,13.00
2018-11-28T06:08:08.217Z,13.97
2018-11-28T06:10:36.099Z,11.77
2018-11-28T06:13:03.997Z,11.73
2018-11-28T06:15:31.919Z,11.73
2018-11-28T06:17:59.806Z,11.03
2018-11-28T06:20:27.705Z,11.27
2018-11-28T06:22:55.634Z,10.55
2018-11-28T06:25:23.503Z,9.83
2018-11-28T06:27:51.416Z,10.93
2018-11-28T06:30:19.921Z,9.63
2018-11-28T06:32:51.224Z,10.13
2018-11-28T06:35:15.793Z,9.33
2018-11-28T06:37:43.921Z,9.68
2018-11-28T06:40:12.513Z,10.30
2018-11-28T06:42:40.597Z,9.97
2018-11-28T06:45:09.349Z,9.90
2018-11-28T06:47:37.253Z,10.13
2018-11-28T06:50:06.584Z,9.83
2018-11-28T06:52:34.431Z,10.33
2018-11-28T06:55:02.321Z,10.03
2018-11-28T06:57:30.169Z,9.70
2018-11-28T06:59:58.023Z,8.87
2018-11-28T07:02:25.913Z,10.47
2018-11-28T07:04:53.782Z,10.53
2018-11-28T07:07:21.805Z,11.00
2018-11-28T07:09:49.693Z,9.48
2018-11-28T07:12:17.623Z,10.70
2018-11-28T07:14:45.473Z,9.73
2018-11-28T07:17:13.328Z,9.73
2018-11-28T07:19:41.198Z,10.03
2018-11-28T07:22:09.046Z,10.97
2018-11-28T07:24:36.893Z,9.57
2018-11-28T07:27:04.797Z,8.63
2018-11-28T07:29:32.671Z,9.70
2018-11-28T07:32:00.518Z,10.13
2018-11-28T07:34:28.366Z,10.80
2018-11-28T07:36:56.198Z,9.43
2018-11-28T07:39:24.312Z,9.63
2018-11-28T07:41:52.161Z,9.83
2018-11-28T07:44:20.930Z,10.10
2018-11-28T07:46:48.797Z,10.87
2018-11-28T07:49:16.663Z,10.30
2018-11-28T07:51:44.560Z,10.47
2018-11-28T07:54:12.691Z,10.47
2018-11-28T07:56:40.598Z,11.50
2018-11-28T07:59:08.464Z,11.13
2018-11-28T08:01:36.341Z,11.23
2018-11-28T08:04:04.218Z,10.83
2018-11-28T08:06:32.122Z,11.77
2018-11-28T08:08:59.989Z,11.37
2018-11-28T08:11:28.241Z,10.37
2018-11-28T08:13:56.119Z,11.93
2018-11-28T08:16:23.998Z,11.13
2018-11-28T08:18:51.890Z,11.00
2018-11-28T08:21:19.757Z,12.60
2018-11-28T08:23:47.622Z,12.47
2018-11-28T08:26:15.470Z,10.93
2018-11-28T08:28:43.400Z,12.30
2018-11-28T08:31:11.389Z,12.37
2018-11-28T08:33:39.245Z,11.17
2018-11-28T08:36:07.103Z,11.90
2018-11-28T08:38:35.040Z,11.30
2018-11-28T08:41:02.920Z,12.13
2018-11-28T08:43:30.847Z,11.90
2018-11-28T08:45:58.697Z,11.43
2018-11-28T08:48:26.638Z,11.97
2018-11-28T08:50:54.509Z,12.13
2018-11-28T08:53:22.438Z,11.43
2018-11-28T08:55:50.363Z,11.80
2018-11-28T08:58:18.216Z,11.03
2018-11-28T09:00:46.193Z,12.77
2018-11-28T09:03:14.081Z,12.63
2018-11-28T09:05:41.979Z,14.73
2018-11-28T09:08:09.851Z,12.13
2018-11-28T09:10:37.721Z,12.03
2018-11-28T09:13:06.163Z,12.53
2018-11-28T09:15:34.242Z,11.93
2018-11-28T09:18:02.125Z,13.00
2018-11-28T09:20:29.972Z,12.57
2018-11-28T09:22:57.863Z,13.27
2018-11-28T09:25:25.771Z,12.67
2018-11-28T09:27:55.438Z,13.07
2018-11-28T09:30:23.337Z,12.30
2018-11-28T09:32:51.559Z,12.50
2018-11-28T09:35:19.753Z,13.67
2018-11-28T09:37:47.687Z,12.70
2018-11-28T09:40:17.056Z,12.57
2018-11-28T09:42:45.147Z,12.40
2018-11-28T09:45:15.612Z,12.50
2018-11-28T09:47:43.551Z,11.83
2018-11-28T09:50:12.215Z,13.30
2018-11-28T09:52:40.142Z,13.03
2018-11-28T09:55:09.311Z,13.13
2018-11-28T09:57:37.192Z,13.00
2018-11-28T10:00:05.464Z,12.43
2018-11-28T10:02:33.369Z,12.80
2018-11-28T10:05:03.020Z,13.17
2018-11-28T10:07:29.165Z,13.23
2018-11-28T10:09:57.040Z,13.23
2018-11-28T10:12:25.082Z,13.37
2018-11-28T10:14:52.999Z,12.83
2018-11-28T10:17:21.065Z,13.83
2018-11-28T10:19:49.071Z,12.73
2018-11-28T10:22:16.946Z,14.00
2018-11-28T10:24:44.920Z,13.70
2018-11-28T10:27:12.810Z,15.23
2018-11-28T10:29:41.081Z,13.90
2018-11-28T10:32:08.944Z,13.57
2018-11-28T10:34:36.815Z,13.63
2018-11-28T10:37:04.706Z,12.77
2018-11-28T10:39:32.552Z,12.83
2018-11-28T10:42:00.434Z,13.80
2018-11-28T10:44:28.313Z,12.40
2018-11-28T10:46:56.209Z,12.10
2018-11-28T10:49:24.054Z,12.80
2018-11-28T10:51:51.973Z,11.90
2018-11-28T10:54:19.833Z,11.87
2018-11-28T10:56:47.687Z,11.50
2018-11-28T10:59:15.543Z,11.33
2018-11-28T11:01:48.523Z,11.40
2018-11-28T11:04:16.535Z,10.93
2018-11-28T11:06:49.609Z,11.47
2018-11-28T11:09:22.758Z,11.30
2018-11-28T11:11:55.861Z,10.93
2018-11-28T11:14:28.861Z,11.60
2018-11-28T11:16:56.726Z,10.23
2018-11-28T11:19:24.659Z,10.97
2018-11-28T11:21:52.702Z,10.07
2018-11-28T11:24:20.708Z,9.77
2018-11-28T11:26:48.553Z,8.60
2018-11-28T11:29:16.393Z,9.87
2018-11-28T11:31:44.276Z,10.97
2018-11-28T11:34:12.157Z,11.10
2018-11-28T11:36:40.001Z,11.40
2018-11-28T11:39:08.328Z,9.93
2018-11-28T11:41:36.202Z,9.13
2018-11-28T11:44:04.152Z,10.83
2018-11-28T11:46:32.017Z,9.27
2018-11-28T11:48:59.946Z,9.50
2018-11-28T11:51:27.791Z,9.77
2018-11-28T11:53:55.658Z,11.60
2018-11-28T11:56:23.606Z,9.63
2018-11-28T11:58:51.535Z,9.97
2018-11-28T12:01:19.558Z,8.23
2018-11-28T12:03:47.482Z,8.93
2018-11-28T12:06:15.478Z,9.67
2018-11-28T12:08:43.321Z,8.57
2018-11-28T12:11:11.201Z,8.73
2018-11-28T12:13:39.047Z,8.10
2018-11-28T12:16:07.029Z,7.00
2018-11-28T12:18:34.950Z,7.13
2018-11-28T12:21:03.755Z,7.80
2018-11-28T12:23:31.679Z,7.13
2018-11-28T12:25:59.532Z,7.40
2018-11-28T12:28:27.476Z,8.07
2018-11-28T12:30:55.450Z,8.80
2018-11-28T12:33:23.338Z,9.07
2018-11-28T12:35:51.198Z,9.00
2018-11-28T12:38:19.185Z,8.77
2018-11-28T12:40:47.156Z,9.13
2018-11-28T12:43:15.062Z,9.50
2018-11-28T12:45:44.319Z,9.03
2018-11-28T12:48:12.180Z,8.30
2018-11-28T12:50:40.025Z,8.27
2018-11-28T12:53:08.840Z,7.53
2018-11-28T12:55:37.205Z,8.17
2018-11-28T12:58:05.441Z,8.40
2018-11-28T13:00:35.294Z,8.20
2018-11-28T13:03:03.614Z,8.43
2018-11-28T13:05:31.478Z,9.57
2018-11-28T13:07:59.414Z,9.87
2018-11-28T13:10:28.004Z,8.77
2018-11-28T13:12:56.038Z,8.53
2018-11-28T13:15:24.658Z,8.63
2018-11-28T13:17:52.519Z,9.27
2018-11-28T13:20:20.844Z,8.93
2018-11-28T13:22:49.500Z,8.47
2018-11-28T13:25:18.138Z,8.83
2018-11-28T13:27:46.012Z,8.83
2018-11-28T13:30:14.592Z,8.40
2018-11-28T13:32:42.718Z,9.27
2018-11-28T13:35:11.080Z,8.80
2018-11-28T13:37:38.977Z,7.83
2018-11-28T13:40:08.921Z,9.10
2018-11-28T13:42:36.913Z,9.80
2018-11-28T13:45:05.545Z,8.53
2018-11-28T13:52:22.988Z,8.80
2018-11-28T13:55:37.600Z,8.30
2018-11-28T13:57:18.993Z,9.07
2018-11-28T13:59:47.196Z,8.53
2018-11-28T14:02:15.089Z,8.57
2018-11-28T14:04:43.417Z,8.67
2018-11-28T14:07:11.249Z,8.47
2018-11-28T14:09:39.156Z,8.60
2018-11-28T14:12:07.024Z,9.20
2018-11-28T14:14:34.911Z,9.07
2018-11-28T14:17:02.766Z,8.53
2018-11-28T14:19:30.749Z,8.27
2018-11-28T14:21:58.791Z,7.90
2018-11-28T14:24:26.673Z,9.20
2018-11-28T14:26:54.562Z,9.10
2018-11-28T14:29:22.527Z,7.60
2018-11-28T14:31:51.329Z,8.03
2018-11-28T14:34:19.226Z,8.57
2018-11-28T14:36:47.558Z,9.87
2018-11-28T14:39:15.420Z,8.10
2018-11-28T14:41:43.990Z,8.63
2018-11-28T14:46:56.129Z,7.10
2018-11-28T14:49:24.297Z,8.17
2018-11-28T14:51:52.189Z,7.30
2018-11-28T14:54:20.056Z,7.90
2018-11-28T14:56:47.931Z,7.57
2018-11-28T14:59:15.817Z,7.17
2018-11-28T15:01:43.680Z,7.60
2018-11-28T15:04:11.533Z,8.43
2018-11-28T15:06:43.572Z,7.10
2018-11-28T15:09:16.599Z,7.57
2018-11-28T15:11:44.861Z,7.10
2018-11-28T15:14:12.734Z,7.10
2018-11-28T15:16:40.581Z,7.13
2018-11-28T15:19:08.463Z,6.97
2018-11-28T15:21:36.334Z,6.90
2018-11-28T15:24:04.223Z,7.07
2018-11-28T15:26:32.232Z,7.20
2018-11-28T15:29:00.072Z,7.33
2018-11-28T15:31:27.949Z,7.17
2018-11-28T15:33:55.938Z,7.03
2018-11-28T15:36:23.774Z,8.03
2018-11-28T15:38:51.661Z,7.50
2018-11-28T15:41:19.658Z,7.27
2018-11-28T15:43:47.508Z,6.30
2018-11-28T15:46:15.370Z,7.13
2018-11-28T15:48:43.226Z,7.10
2018-11-28T15:51:11.157Z,7.40
2018-11-28T15:56:22.801Z,8.13
2018-11-28T15:58:50.683Z,7.37
2018-11-28T16:01:18.662Z,7.17
2018-11-28T16:03:46.693Z,6.43
2018-11-28T16:06:14.623Z,7.47
2018-11-28T16:08:42.517Z,7.00
2018-11-28T16:11:11.606Z,7.00
2018-11-28T16:13:39.937Z,7.40
2018-11-28T16:16:08.193Z,6.93
2018-11-28T16:18:36.306Z,7.50
2018-11-28T16:21:04.202Z,8.43
2018-11-28T16:23:32.122Z,6.93
2018-11-28T16:26:00.011Z,7.60
2018-11-28T16:28:27.954Z,6.80
2018-11-28T16:30:55.874Z,7.70
2018-11-28T16:33:23.787Z,7.53
2018-11-28T16:35:51.893Z,7.07
2018-11-28T16:38:19.773Z,7.37
2018-11-28T16:40:47.652Z,7.53
2018-11-28T16:43:15.511Z,8.60
2018-11-28T16:45:43.487Z,7.10
2018-11-28T16:48:11.354Z,6.83
2018-11-28T16:50:39.608Z,7.67
2018-11-28T16:53:07.599Z,7.63
2018-11-28T16:55:35.465Z,9.63
2018-11-28T16:58:03.426Z,9.70
2018-11-28T17:00:31.888Z,9.77
2018-11-28T17:02:59.917Z,9.40
2018-11-28T17:05:27.784Z,9.50
2018-11-28T17:07:55.697Z,11.43
2018-11-28T17:10:24.433Z,11.00
2018-11-28T17:12:53.349Z,12.07
2018-11-28T17:15:21.338Z,11.03
2018-11-28T17:17:49.355Z,11.23
2018-11-28T17:20:20.842Z,10.80
2018-11-28T17:22:49.233Z,11.33
2018-11-28T17:25:21.621Z,10.43
2018-11-28T17:27:49.525Z,10.53
2018-11-28T17:30:18.934Z,10.90
2018-11-28T17:32:46.209Z,11.47
2018-11-28T17:35:14.493Z,12.53
2018-11-28T17:37:42.404Z,12.27
2018-11-28T17:40:12.011Z,11.67
2018-11-28T17:42:39.945Z,13.37
2018-11-28T17:45:09.706Z,14.30
2018-11-28T17:47:37.604Z,13.33
2018-11-28T17:50:07.717Z,12.50
2018-11-28T17:52:35.599Z,12.50
2018-11-28T17:55:03.514Z,11.87
2018-11-28T17:57:31.440Z,11.90
2018-11-28T17:59:59.345Z,12.17
2018-11-28T18:02:27.249Z,12.73
2018-11-28T18:04:55.149Z,14.50
2018-11-28T18:07:23.042Z,15.67
2018-11-28T18:09:50.910Z,15.87
2018-11-28T18:12:18.764Z,16.10
2018-11-28T18:14:46.620Z,15.43
2018-11-28T18:17:14.520Z,14.20
2018-11-28T18:19:42.403Z,13.90
2018-11-28T18:22:10.772Z,14.87
2018-11-28T18:24:38.879Z,15.07
2018-11-28T18:27:06.805Z,13.73
2018-11-28T18:29:34.911Z,14.90
2018-11-28T18:32:02.817Z,16.03
2018-11-28T18:34:30.682Z,14.80
2018-11-28T18:36:58.598Z,14.40
2018-11-28T18:39:26.470Z,14.77
2018-11-28T18:41:54.359Z,14.50
2018-11-28T18:44:22.545Z,16.73
2018-11-28T18:46:50.381Z,13.67
2018-11-28T18:49:18.300Z,16.80
2018-11-28T18:51:46.227Z,14.10
2018-11-28T18:54:14.142Z,13.57
2018-11-28T18:56:42.316Z,13.73
2018-11-28T18:59:10.149Z,14.00
2018-11-28T19:01:38.056Z,14.93
2018-11-28T19:04:06.141Z,14.87
2018-11-28T19:06:34.007Z,14.77
2018-11-28T19:09:01.875Z,13.67
2018-11-28T19:11:29.853Z,13.17
2018-11-28T19:13:57.894Z,13.13
2018-11-28T19:16:26.286Z,12.70
2018-11-28T19:18:54.198Z,12.67
2018-11-28T19:21:22.119Z,13.23
2018-11-28T19:23:50.002Z,13.77
2018-11-28T19:26:18.204Z,13.00
2018-11-28T19:28:46.084Z,13.77
2018-11-28T19:31:14.121Z,13.73
2018-11-28T19:33:42.174Z,14.23
2018-11-28T19:36:10.378Z,14.20
2018-11-28T19:38:38.507Z,14.10
2018-11-28T19:41:07.451Z,14.40
2018-11-28T19:43:35.390Z,13.83
2018-11-28T19:46:03.641Z,13.63
2018-11-28T19:48:31.733Z,14.27
2018-11-28T19:50:59.763Z,14.67
2018-11-28T19:53:27.817Z,14.00
2018-11-28T19:55:55.988Z,16.07
2018-11-28T19:58:24.524Z,14.20
2018-11-28T20:00:52.947Z,14.93
2018-11-28T20:03:21.929Z,13.73
2018-11-28T20:05:50.189Z,15.00
2018-11-28T20:08:19.470Z,14.83
2018-11-28T20:10:47.534Z,13.50
2018-11-28T20:13:15.929Z,14.10
2018-11-28T20:15:45.161Z,13.40
2018-11-28T20:18:13.300Z,14.30
2018-11-28T20:20:41.333Z,13.13
2018-11-28T20:23:09.388Z,14.23
2018-11-28T20:25:37.488Z,13.60
2018-11-28T20:28:05.549Z,14.00
2018-11-28T20:30:35.875Z,13.50
2018-11-28T20:33:03.929Z,11.90
2018-11-28T20:35:31.944Z,13.30
2018-11-28T20:38:00.048Z,12.50
2018-11-28T20:40:28.135Z,12.40
2018-11-28T20:42:56.537Z,14.17
2018-11-28T20:45:24.845Z,14.30
2018-11-28T20:47:52.906Z,13.47
2018-11-28T20:50:22.591Z,13.27
2018-11-28T20:52:54.915Z,13.23
2018-11-28T20:55:19.641Z,14.37
2018-11-28T20:57:47.583Z,13.83
2018-11-28T21:00:15.990Z,14.10
2018-11-28T21:02:43.986Z,15.00
2018-11-28T21:05:11.991Z,15.20
2018-11-28T21:07:39.898Z,13.93
2018-11-28T21:10:14.103Z,13.60
2018-11-28T21:12:41.982Z,13.33
2018-11-28T21:15:09.901Z,13.57
2018-11-28T21:17:37.795Z,14.40
2018-11-28T21:20:08.377Z,14.83
2018-11-28T21:22:36.267Z,16.23
2018-11-28T21:25:04.290Z,17.47
2018-11-28T21:27:32.233Z,16.60
2018-11-28T21:30:00.277Z,18.17
2018-11-28T21:32:28.166Z,18.53
2018-11-28T21:34:56.087Z,20.70
2018-11-28T21:37:24.029Z,19.80
2018-11-28T21:39:55.784Z,19.97
2018-11-28T21:42:23.752Z,18.00
2018-11-28T21:44:51.670Z,17.80
2018-11-28T21:47:19.581Z,18.53
2018-11-28T21:49:47.468Z,17.50
2018-11-28T21:52:15.361Z,18.03
2018-11-28T21:54:43.255Z,17.60
2018-11-28T21:57:11.151Z,20.13
2018-11-28T21:59:39.009Z,17.60
2018-11-28T22:02:07.191Z,16.77
2018-11-28T22:04:35.098Z,17.27
2018-11-28T22:07:03.429Z,16.47
2018-11-28T22:09:34.094Z,16.87
2018-11-28T22:12:02.026Z,16.67
2018-11-28T22:14:29.885Z,16.37
2018-11-28T22:16:57.752Z,16.43
2018-11-28T22:19:25.653Z,16.50
2018-11-28T22:21:53.543Z,17.20
2018-11-28T22:24:21.465Z,17.50
2018-11-28T22:26:49.348Z,16.57
2018-11-28T22:29:17.210Z,15.30
2018-11-28T22:31:45.087Z,16.13
2018-11-28T22:34:12.961Z,16.83
2018-11-28T22:36:40.821Z,16.23
2018-11-28T22:39:09.610Z,16.93
2018-11-28T22:41:37.466Z,16.93
2018-11-28T22:44:05.362Z,16.27
2018-11-28T22:46:33.237Z,16.03
2018-11-28T22:49:01.120Z,16.97
2018-11-28T22:51:28.986Z,17.33
2018-11-28T22:53:56.879Z,16.67
2018-11-28T22:56:24.816Z,17.37
2018-11-28T22:58:52.729Z,17.33
2018-11-28T23:01:25.679Z,15.53
2018-11-28T23:03:53.599Z,17.20
2018-11-28T23:06:21.653Z,16.13
2018-11-28T23:08:49.567Z,16.70
2018-11-28T23:11:17.509Z,15.40
2018-11-28T23:13:45.518Z,16.80
2018-11-28T23:16:13.601Z,16.73
2018-11-28T23:18:41.545Z,16.37
2018-11-28T23:21:09.408Z,15.87
2018-11-28T23:23:37.282Z,16.60
2018-11-28T23:26:05.165Z,14.97
2018-11-28T23:28:33.047Z,15.47
2018-11-28T23:31:00.968Z,16.17
2018-11-28T23:33:28.889Z,15.70
2018-11-28T23:35:56.762Z,15.00
2018-11-28T23:38:24.666Z,14.73
2018-11-28T23:40:52.615Z,15.07
2018-11-28T23:43:20.554Z,14.70
2018-11-28T23:45:48.465Z,14.60
2018-11-28T23:48:16.378Z,15.07
2018-11-28T23:50:44.239Z,13.73
2018-11-28T23:53:12.126Z,12.87
2018-11-28T23:55:40.052Z,12.97
2018-11-28T23:58:07.945Z,13.30
